sensor_id;sensor_type;location;lat;lon;timestamp;P1;durP1;ratioP1;P2;durP2;ratioP2
51030;SDS011;37058;41.442;23.240;2022-07-12T00:01:17;9.40;;;2.30;;
51030;SDS011;37058;41.442;23.240;2022-07-12T00:03:44;1.73;;;1.27;;
51030;SDS011;37058;41.442;23.240;2022-07-12T00:06:10;4.97;;;1.42;;
51030;SDS011;37058;41.442;23.240;2022-07-12T00:08:36;3.78;;;1.98;;
51030;SDS011;37058;41.442;23.240;2022-07-12T00:11:03;2.47;;;1.52;;
51030;SDS011;37058;41.442;23.240;2022-07-12T00:13:29;3.75;;;1.45;;
51030;SDS011;37058;41.442;23.240;2022-07-12T00:15:56;3.58;;;1.45;;
51030;SDS011;37058;41.442;23.240;2022-07-12T00:18:23;4.18;;;1.30;;
51030;SDS011;37058;41.442;23.240;2022-07-12T00:20:49;4.60;;;1.30;;
51030;SDS011;37058;41.442;23.240;2022-07-12T00:23:16;4.55;;;1.58;;
51030;SDS011;37058;41.442;23.240;2022-07-12T00:25:42;4.60;;;1.33;;
51030;SDS011;37058;41.442;23.240;2022-07-12T00:28:08;5.40;;;1.70;;
51030;SDS011;37058;41.442;23.240;2022-07-12T00:30:34;4.25;;;1.58;;
51030;SDS011;37058;41.442;23.240;2022-07-12T00:33:00;3.13;;;1.48;;
51030;SDS011;37058;41.442;23.240;2022-07-12T00:35:26;6.28;;;2.70;;
51030;SDS011;37058;41.442;23.240;2022-07-12T00:37:52;7.85;;;3.03;;
51030;SDS011;37058;41.442;23.240;2022-07-12T00:40:18;6.18;;;2.30;;
51030;SDS011;37058;41.442;23.240;2022-07-12T00:42:44;8.93;;;2.08;;
51030;SDS011;37058;41.442;23.240;2022-07-12T00:45:10;4.28;;;2.08;;
51030;SDS011;37058;41.442;23.240;2022-07-12T00:47:37;5.15;;;3.00;;
51030;SDS011;37058;41.442;23.240;2022-07-12T00:50:10;3.90;;;2.03;;
51030;SDS011;37058;41.442;23.240;2022-07-12T00:52:43;5.30;;;1.90;;
51030;SDS011;37058;41.442;23.240;2022-07-12T00:55:11;3.50;;;1.80;;
51030;SDS011;37058;41.442;23.240;2022-07-12T00:57:39;3.13;;;1.67;;
51030;SDS011;37058;41.442;23.240;2022-07-12T01:00:08;2.58;;;1.40;;
51030;SDS011;37058;41.442;23.240;2022-07-12T01:02:37;4.63;;;1.67;;
51030;SDS011;37058;41.442;23.240;2022-07-12T01:05:05;4.60;;;1.80;;
51030;SDS011;37058;41.442;23.240;2022-07-12T01:07:33;4.15;;;1.90;;
51030;SDS011;37058;41.442;23.240;2022-07-12T01:10:00;5.70;;;1.55;;
51030;SDS011;37058;41.442;23.240;2022-07-12T01:12:28;4.28;;;1.80;;
51030;SDS011;37058;41.442;23.240;2022-07-12T01:14:54;4.85;;;1.70;;
51030;SDS011;37058;41.442;23.240;2022-07-12T01:17:23;3.55;;;1.38;;
51030;SDS011;37058;41.442;23.240;2022-07-12T01:19:52;2.65;;;1.50;;
51030;SDS011;37058;41.442;23.240;2022-07-12T01:22:25;4.18;;;1.98;;
51030;SDS011;37058;41.442;23.240;2022-07-12T01:25:05;4.30;;;1.57;;
51030;SDS011;37058;41.442;23.240;2022-07-12T01:27:32;3.50;;;1.63;;
51030;SDS011;37058;41.442;23.240;2022-07-12T01:29:59;3.47;;;1.55;;
51030;SDS011;37058;41.442;23.240;2022-07-12T01:32:28;3.13;;;1.48;;
51030;SDS011;37058;41.442;23.240;2022-07-12T01:37:36;5.53;;;1.90;;
51030;SDS011;37058;41.442;23.240;2022-07-12T01:40:06;5.18;;;1.50;;
51030;SDS011;37058;41.442;23.240;2022-07-12T01:42:34;2.50;;;1.60;;
51030;SDS011;37058;41.442;23.240;2022-07-12T01:45:01;3.47;;;1.65;;
51030;SDS011;37058;41.442;23.240;2022-07-12T01:47:29;3.47;;;1.95;;
51030;SDS011;37058;41.442;23.240;2022-07-12T01:49:56;2.40;;;1.63;;
51030;SDS011;37058;41.442;23.240;2022-07-12T01:52:23;4.78;;;1.70;;
51030;SDS011;37058;41.442;23.240;2022-07-12T01:54:50;3.60;;;1.85;;
51030;SDS011;37058;41.442;23.240;2022-07-12T01:57:17;1.75;;;1.40;;
51030;SDS011;37058;41.442;23.240;2022-07-12T01:59:45;4.93;;;1.30;;
51030;SDS011;37058;41.442;23.240;2022-07-12T02:02:11;2.50;;;1.70;;
51030;SDS011;37058;41.442;23.240;2022-07-12T02:04:36;5.60;;;1.80;;
51030;SDS011;37058;41.442;23.240;2022-07-12T02:07:03;3.85;;;1.73;;
51030;SDS011;37058;41.442;23.240;2022-07-12T02:09:30;3.67;;;1.90;;
51030;SDS011;37058;41.442;23.240;2022-07-12T02:11:57;4.20;;;1.88;;
51030;SDS011;37058;41.442;23.240;2022-07-12T02:14:23;7.75;;;2.00;;
51030;SDS011;37058;41.442;23.240;2022-07-12T02:16:49;3.25;;;1.90;;
51030;SDS011;37058;41.442;23.240;2022-07-12T02:19:15;4.20;;;1.85;;
51030;SDS011;37058;41.442;23.240;2022-07-12T02:21:41;3.35;;;1.75;;
51030;SDS011;37058;41.442;23.240;2022-07-12T02:24:08;2.65;;;1.88;;
51030;SDS011;37058;41.442;23.240;2022-07-12T02:26:34;3.47;;;1.90;;
51030;SDS011;37058;41.442;23.240;2022-07-12T02:29:02;6.43;;;1.80;;
51030;SDS011;37058;41.442;23.240;2022-07-12T02:31:29;2.72;;;1.60;;
51030;SDS011;37058;41.442;23.240;2022-07-12T02:33:56;10.90;;;2.13;;
51030;SDS011;37058;41.442;23.240;2022-07-12T02:36:22;7.82;;;2.20;;
51030;SDS011;37058;41.442;23.240;2022-07-12T02:38:48;4.28;;;1.95;;
51030;SDS011;37058;41.442;23.240;2022-07-12T02:41:14;6.10;;;2.17;;
51030;SDS011;37058;41.442;23.240;2022-07-12T02:43:40;7.47;;;2.47;;
51030;SDS011;37058;41.442;23.240;2022-07-12T02:46:07;6.28;;;1.85;;
51030;SDS011;37058;41.442;23.240;2022-07-12T02:48:35;9.05;;;3.38;;
51030;SDS011;37058;41.442;23.240;2022-07-12T02:51:01;3.15;;;1.83;;
51030;SDS011;37058;41.442;23.240;2022-07-12T02:53:29;3.40;;;1.40;;
51030;SDS011;37058;41.442;23.240;2022-07-12T02:55:54;6.65;;;2.35;;
51030;SDS011;37058;41.442;23.240;2022-07-12T02:58:21;4.20;;;1.80;;
51030;SDS011;37058;41.442;23.240;2022-07-12T03:00:47;5.13;;;2.17;;
51030;SDS011;37058;41.442;23.240;2022-07-12T03:03:13;5.40;;;1.90;;
51030;SDS011;37058;41.442;23.240;2022-07-12T03:05:39;4.18;;;1.83;;
51030;SDS011;37058;41.442;23.240;2022-07-12T03:08:07;4.40;;;2.10;;
51030;SDS011;37058;41.442;23.240;2022-07-12T03:10:34;10.00;;;2.30;;
51030;SDS011;37058;41.442;23.240;2022-07-12T03:13:01;5.80;;;2.37;;
51030;SDS011;37058;41.442;23.240;2022-07-12T03:15:28;6.68;;;2.15;;
51030;SDS011;37058;41.442;23.240;2022-07-12T03:17:55;6.57;;;2.00;;
51030;SDS011;37058;41.442;23.240;2022-07-12T03:20:23;3.72;;;2.13;;
51030;SDS011;37058;41.442;23.240;2022-07-12T03:22:49;8.98;;;2.08;;
51030;SDS011;37058;41.442;23.240;2022-07-12T03:25:17;11.73;;;2.50;;
51030;SDS011;37058;41.442;23.240;2022-07-12T03:27:43;8.00;;;1.80;;
51030;SDS011;37058;41.442;23.240;2022-07-12T03:30:10;3.27;;;1.77;;
51030;SDS011;37058;41.442;23.240;2022-07-12T03:32:37;5.93;;;1.95;;
51030;SDS011;37058;41.442;23.240;2022-07-12T03:35:03;11.07;;;2.50;;
51030;SDS011;37058;41.442;23.240;2022-07-12T03:40:30;6.65;;;2.40;;
51030;SDS011;37058;41.442;23.240;2022-07-12T03:42:59;11.45;;;2.83;;
51030;SDS011;37058;41.442;23.240;2022-07-12T03:45:25;7.93;;;2.78;;
51030;SDS011;37058;41.442;23.240;2022-07-12T03:47:51;6.13;;;2.13;;
51030;SDS011;37058;41.442;23.240;2022-07-12T03:50:17;3.85;;;1.60;;
51030;SDS011;37058;41.442;23.240;2022-07-12T03:52:43;3.83;;;2.20;;
51030;SDS011;37058;41.442;23.240;2022-07-12T03:55:10;4.77;;;2.10;;
51030;SDS011;37058;41.442;23.240;2022-07-12T03:57:38;7.80;;;2.67;;
51030;SDS011;37058;41.442;23.240;2022-07-12T04:00:08;5.47;;;2.57;;
51030;SDS011;37058;41.442;23.240;2022-07-12T04:02:37;5.43;;;2.20;;
51030;SDS011;37058;41.442;23.240;2022-07-12T04:05:05;4.50;;;2.80;;
51030;SDS011;37058;41.442;23.240;2022-07-12T04:07:32;10.20;;;2.50;;
51030;SDS011;37058;41.442;23.240;2022-07-12T04:09:58;3.97;;;2.00;;
51030;SDS011;37058;41.442;23.240;2022-07-12T04:12:24;5.30;;;2.03;;
51030;SDS011;37058;41.442;23.240;2022-07-12T04:14:50;6.20;;;2.65;;
51030;SDS011;37058;41.442;23.240;2022-07-12T04:17:16;10.55;;;2.45;;
51030;SDS011;37058;41.442;23.240;2022-07-12T04:19:41;5.60;;;2.20;;
51030;SDS011;37058;41.442;23.240;2022-07-12T04:22:07;23.02;;;4.13;;
51030;SDS011;37058;41.442;23.240;2022-07-12T04:24:33;5.40;;;1.83;;
51030;SDS011;37058;41.442;23.240;2022-07-12T04:26:59;9.00;;;2.67;;
51030;SDS011;37058;41.442;23.240;2022-07-12T04:29:25;7.80;;;3.13;;
51030;SDS011;37058;41.442;23.240;2022-07-12T04:31:51;6.10;;;4.28;;
51030;SDS011;37058;41.442;23.240;2022-07-12T04:34:17;5.57;;;4.15;;
51030;SDS011;37058;41.442;23.240;2022-07-12T04:36:46;10.88;;;4.95;;
51030;SDS011;37058;41.442;23.240;2022-07-12T04:39:14;8.48;;;3.17;;
51030;SDS011;37058;41.442;23.240;2022-07-12T04:41:39;6.18;;;3.38;;
51030;SDS011;37058;41.442;23.240;2022-07-12T04:44:06;4.80;;;2.90;;
51030;SDS011;37058;41.442;23.240;2022-07-12T04:46:32;30.88;;;5.32;;
51030;SDS011;37058;41.442;23.240;2022-07-12T04:48:58;10.73;;;3.38;;
51030;SDS011;37058;41.442;23.240;2022-07-12T04:51:25;12.27;;;3.85;;
51030;SDS011;37058;41.442;23.240;2022-07-12T04:53:52;6.97;;;2.38;;
51030;SDS011;37058;41.442;23.240;2022-07-12T04:56:18;17.10;;;2.70;;
51030;SDS011;37058;41.442;23.240;2022-07-12T04:58:43;18.90;;;3.67;;
51030;SDS011;37058;41.442;23.240;2022-07-12T05:01:09;17.65;;;4.20;;
51030;SDS011;37058;41.442;23.240;2022-07-12T05:03:35;14.60;;;2.90;;
51030;SDS011;37058;41.442;23.240;2022-07-12T05:06:01;5.65;;;2.67;;
51030;SDS011;37058;41.442;23.240;2022-07-12T05:08:27;13.13;;;3.55;;
51030;SDS011;37058;41.442;23.240;2022-07-12T05:10:53;11.18;;;4.47;;
51030;SDS011;37058;41.442;23.240;2022-07-12T05:13:19;10.63;;;3.60;;
51030;SDS011;37058;41.442;23.240;2022-07-12T05:15:45;8.50;;;3.83;;
51030;SDS011;37058;41.442;23.240;2022-07-12T05:18:11;38.22;;;7.07;;
51030;SDS011;37058;41.442;23.240;2022-07-12T05:20:38;12.25;;;2.97;;
51030;SDS011;37058;41.442;23.240;2022-07-12T05:23:04;13.20;;;3.28;;
51030;SDS011;37058;41.442;23.240;2022-07-12T05:25:29;10.32;;;3.03;;
51030;SDS011;37058;41.442;23.240;2022-07-12T05:27:55;5.90;;;1.60;;
51030;SDS011;37058;41.442;23.240;2022-07-12T05:30:21;5.15;;;1.95;;
51030;SDS011;37058;41.442;23.240;2022-07-12T05:32:47;8.48;;;3.15;;
51030;SDS011;37058;41.442;23.240;2022-07-12T05:35:14;10.07;;;2.67;;
51030;SDS011;37058;41.442;23.240;2022-07-12T05:37:40;4.90;;;1.90;;
51030;SDS011;37058;41.442;23.240;2022-07-12T05:40:06;6.63;;;2.20;;
51030;SDS011;37058;41.442;23.240;2022-07-12T05:42:33;8.15;;;2.00;;
51030;SDS011;37058;41.442;23.240;2022-07-12T05:44:59;4.00;;;1.65;;
51030;SDS011;37058;41.442;23.240;2022-07-12T05:47:24;3.05;;;1.95;;
51030;SDS011;37058;41.442;23.240;2022-07-12T05:49:50;3.70;;;1.98;;
51030;SDS011;37058;41.442;23.240;2022-07-12T05:52:16;2.88;;;1.55;;
51030;SDS011;37058;41.442;23.240;2022-07-12T05:55:01;4.53;;;1.90;;
51030;SDS011;37058;41.442;23.240;2022-07-12T05:57:27;3.38;;;1.67;;
51030;SDS011;37058;41.442;23.240;2022-07-12T05:59:53;14.57;;;2.30;;
51030;SDS011;37058;41.442;23.240;2022-07-12T06:02:19;4.35;;;1.67;;
51030;SDS011;37058;41.442;23.240;2022-07-12T06:04:45;2.90;;;1.52;;
51030;SDS011;37058;41.442;23.240;2022-07-12T06:07:11;7.68;;;1.70;;
51030;SDS011;37058;41.442;23.240;2022-07-12T06:09:37;2.90;;;1.73;;
51030;SDS011;37058;41.442;23.240;2022-07-12T06:12:03;4.10;;;1.42;;
51030;SDS011;37058;41.442;23.240;2022-07-12T06:14:29;4.72;;;1.58;;
51030;SDS011;37058;41.442;23.240;2022-07-12T06:16:55;7.10;;;1.80;;
51030;SDS011;37058;41.442;23.240;2022-07-12T06:19:21;5.03;;;2.90;;
51030;SDS011;37058;41.442;23.240;2022-07-12T06:21:48;4.32;;;1.42;;
51030;SDS011;37058;41.442;23.240;2022-07-12T06:24:14;3.55;;;1.70;;
51030;SDS011;37058;41.442;23.240;2022-07-12T06:26:41;5.30;;;1.48;;
51030;SDS011;37058;41.442;23.240;2022-07-12T06:29:06;3.83;;;1.50;;
51030;SDS011;37058;41.442;23.240;2022-07-12T06:31:34;2.00;;;1.40;;
51030;SDS011;37058;41.442;23.240;2022-07-12T06:34:00;1.92;;;1.30;;
51030;SDS011;37058;41.442;23.240;2022-07-12T06:36:26;3.05;;;1.60;;
51030;SDS011;37058;41.442;23.240;2022-07-12T06:38:51;2.70;;;1.63;;
51030;SDS011;37058;41.442;23.240;2022-07-12T06:41:17;3.63;;;1.45;;
51030;SDS011;37058;41.442;23.240;2022-07-12T06:43:43;3.85;;;1.70;;
51030;SDS011;37058;41.442;23.240;2022-07-12T06:46:09;7.40;;;2.00;;
51030;SDS011;37058;41.442;23.240;2022-07-12T06:48:35;9.90;;;4.13;;
51030;SDS011;37058;41.442;23.240;2022-07-12T06:51:01;3.80;;;1.67;;
51030;SDS011;37058;41.442;23.240;2022-07-12T06:53:27;5.40;;;1.80;;
51030;SDS011;37058;41.442;23.240;2022-07-12T06:55:52;3.35;;;1.60;;
51030;SDS011;37058;41.442;23.240;2022-07-12T06:58:18;5.55;;;1.77;;
51030;SDS011;37058;41.442;23.240;2022-07-12T07:00:44;4.55;;;1.40;;
51030;SDS011;37058;41.442;23.240;2022-07-12T07:03:10;5.45;;;1.33;;
51030;SDS011;37058;41.442;23.240;2022-07-12T07:05:36;23.65;;;3.88;;
51030;SDS011;37058;41.442;23.240;2022-07-12T07:08:03;6.68;;;1.73;;
51030;SDS011;37058;41.442;23.240;2022-07-12T07:10:30;6.43;;;1.50;;
51030;SDS011;37058;41.442;23.240;2022-07-12T07:12:56;6.68;;;1.50;;
51030;SDS011;37058;41.442;23.240;2022-07-12T07:15:22;4.85;;;1.35;;
51030;SDS011;37058;41.442;23.240;2022-07-12T07:17:48;13.02;;;2.08;;
51030;SDS011;37058;41.442;23.240;2022-07-12T07:20:15;5.75;;;1.42;;
51030;SDS011;37058;41.442;23.240;2022-07-12T07:22:41;7.22;;;2.00;;
51030;SDS011;37058;41.442;23.240;2022-07-12T07:25:07;4.80;;;1.23;;
51030;SDS011;37058;41.442;23.240;2022-07-12T07:27:33;4.20;;;1.08;;
51030;SDS011;37058;41.442;23.240;2022-07-12T07:29:59;2.78;;;1.30;;
51030;SDS011;37058;41.442;23.240;2022-07-12T07:32:44;1.65;;;1.05;;
51030;SDS011;37058;41.442;23.240;2022-07-12T07:35:11;8.25;;;2.30;;
51030;SDS011;37058;41.442;23.240;2022-07-12T07:37:37;11.57;;;2.10;;
51030;SDS011;37058;41.442;23.240;2022-07-12T07:40:03;8.80;;;1.65;;
51030;SDS011;37058;41.442;23.240;2022-07-12T07:42:29;6.40;;;1.88;;
51030;SDS011;37058;41.442;23.240;2022-07-12T07:44:55;5.88;;;1.17;;
51030;SDS011;37058;41.442;23.240;2022-07-12T07:47:21;1.98;;;0.80;;
51030;SDS011;37058;41.442;23.240;2022-07-12T07:49:47;2.33;;;1.00;;
51030;SDS011;37058;41.442;23.240;2022-07-12T07:52:13;7.07;;;1.52;;
51030;SDS011;37058;41.442;23.240;2022-07-12T07:54:39;3.38;;;1.35;;
51030;SDS011;37058;41.442;23.240;2022-07-12T07:57:05;1.38;;;0.93;;
51030;SDS011;37058;41.442;23.240;2022-07-12T07:59:30;7.30;;;1.55;;
51030;SDS011;37058;41.442;23.240;2022-07-12T08:01:56;2.90;;;1.25;;
51030;SDS011;37058;41.442;23.240;2022-07-12T08:04:22;3.28;;;1.15;;
51030;SDS011;37058;41.442;23.240;2022-07-12T08:06:48;3.85;;;0.95;;
51030;SDS011;37058;41.442;23.240;2022-07-12T08:09:15;4.38;;;2.00;;
51030;SDS011;37058;41.442;23.240;2022-07-12T08:11:41;3.75;;;1.30;;
51030;SDS011;37058;41.442;23.240;2022-07-12T08:14:08;6.43;;;2.15;;
51030;SDS011;37058;41.442;23.240;2022-07-12T08:16:36;4.80;;;1.42;;
51030;SDS011;37058;41.442;23.240;2022-07-12T08:19:02;3.38;;;1.33;;
51030;SDS011;37058;41.442;23.240;2022-07-12T08:21:29;9.18;;;1.30;;
51030;SDS011;37058;41.442;23.240;2022-07-12T08:23:55;4.53;;;1.10;;
51030;SDS011;37058;41.442;23.240;2022-07-12T08:26:21;6.25;;;4.75;;
51030;SDS011;37058;41.442;23.240;2022-07-12T08:28:47;8.52;;;1.45;;
51030;SDS011;37058;41.442;23.240;2022-07-12T08:31:13;3.25;;;1.10;;
51030;SDS011;37058;41.442;23.240;2022-07-12T08:33:39;3.80;;;1.40;;
51030;SDS011;37058;41.442;23.240;2022-07-12T08:36:06;2.83;;;1.27;;
51030;SDS011;37058;41.442;23.240;2022-07-12T08:38:34;14.48;;;3.03;;
51030;SDS011;37058;41.442;23.240;2022-07-12T08:41:08;2.38;;;1.05;;
51030;SDS011;37058;41.442;23.240;2022-07-12T08:46:07;7.03;;;1.55;;
51030;SDS011;37058;41.442;23.240;2022-07-12T08:48:35;2.17;;;0.90;;
51030;SDS011;37058;41.442;23.240;2022-07-12T08:51:09;7.43;;;1.30;;
51030;SDS011;37058;41.442;23.240;2022-07-12T08:53:43;3.10;;;1.05;;
51030;SDS011;37058;41.442;23.240;2022-07-12T08:56:29;4.70;;;1.45;;
51030;SDS011;37058;41.442;23.240;2022-07-12T09:01:50;4.85;;;1.08;;
51030;SDS011;37058;41.442;23.240;2022-07-12T09:04:19;4.25;;;1.00;;
51030;SDS011;37058;41.442;23.240;2022-07-12T09:09:30;6.00;;;2.42;;
51030;SDS011;37058;41.442;23.240;2022-07-12T09:11:59;2.60;;;1.00;;
51030;SDS011;37058;41.442;23.240;2022-07-12T09:14:25;5.72;;;1.20;;
51030;SDS011;37058;41.442;23.240;2022-07-12T09:16:58;3.50;;;1.10;;
51030;SDS011;37058;41.442;23.240;2022-07-12T09:19:37;4.50;;;1.25;;
51030;SDS011;37058;41.442;23.240;2022-07-12T09:22:05;4.70;;;1.00;;
51030;SDS011;37058;41.442;23.240;2022-07-12T09:24:43;2.38;;;1.23;;
51030;SDS011;37058;41.442;23.240;2022-07-12T09:27:08;2.75;;;1.13;;
51030;SDS011;37058;41.442;23.240;2022-07-12T09:29:46;3.55;;;1.00;;
51030;SDS011;37058;41.442;23.240;2022-07-12T09:32:12;8.88;;;1.58;;
51030;SDS011;37058;41.442;23.240;2022-07-12T09:34:58;3.13;;;1.10;;
51030;SDS011;37058;41.442;23.240;2022-07-12T09:37:43;6.18;;;1.65;;
51030;SDS011;37058;41.442;23.240;2022-07-12T09:40:09;2.20;;;1.00;;
51030;SDS011;37058;41.442;23.240;2022-07-12T09:42:36;5.75;;;1.00;;
51030;SDS011;37058;41.442;23.240;2022-07-12T09:45:02;1.58;;;0.90;;
51030;SDS011;37058;41.442;23.240;2022-07-12T09:47:30;2.55;;;1.23;;
51030;SDS011;37058;41.442;23.240;2022-07-12T09:49:57;2.78;;;0.93;;
51030;SDS011;37058;41.442;23.240;2022-07-12T09:52:27;6.40;;;1.30;;
51030;SDS011;37058;41.442;23.240;2022-07-12T09:54:55;3.55;;;1.00;;
51030;SDS011;37058;41.442;23.240;2022-07-12T09:59:54;1.80;;;0.95;;
51030;SDS011;37058;41.442;23.240;2022-07-12T10:02:23;7.95;;;1.30;;
51030;SDS011;37058;41.442;23.240;2022-07-12T10:04:50;3.70;;;1.00;;
51030;SDS011;37058;41.442;23.240;2022-07-12T10:07:17;3.55;;;1.08;;
51030;SDS011;37058;41.442;23.240;2022-07-12T10:09:45;4.53;;;1.30;;
51030;SDS011;37058;41.442;23.240;2022-07-12T10:12:17;2.08;;;1.05;;
51030;SDS011;37058;41.442;23.240;2022-07-12T10:14:45;3.65;;;1.23;;
51030;SDS011;37058;41.442;23.240;2022-07-12T10:17:13;2.97;;;1.10;;
51030;SDS011;37058;41.442;23.240;2022-07-12T10:19:48;1.85;;;1.08;;
51030;SDS011;37058;41.442;23.240;2022-07-12T10:22:20;4.05;;;1.40;;
51030;SDS011;37058;41.442;23.240;2022-07-12T10:24:47;2.55;;;0.73;;
51030;SDS011;37058;41.442;23.240;2022-07-12T10:29:48;4.80;;;0.80;;
51030;SDS011;37058;41.442;23.240;2022-07-12T10:32:26;6.82;;;1.75;;
51030;SDS011;37058;41.442;23.240;2022-07-12T10:35:05;2.83;;;1.00;;
51030;SDS011;37058;41.442;23.240;2022-07-12T10:37:37;5.60;;;1.00;;
51030;SDS011;37058;41.442;23.240;2022-07-12T10:45:30;5.18;;;1.10;;
51030;SDS011;37058;41.442;23.240;2022-07-12T10:48:03;3.00;;;1.08;;
51030;SDS011;37058;41.442;23.240;2022-07-12T10:53:20;3.63;;;0.95;;
51030;SDS011;37058;41.442;23.240;2022-07-12T10:58:48;3.75;;;1.00;;
51030;SDS011;37058;41.442;23.240;2022-07-12T11:01:29;5.50;;;1.30;;
51030;SDS011;37058;41.442;23.240;2022-07-12T11:06:36;1.42;;;0.80;;
51030;SDS011;37058;41.442;23.240;2022-07-12T11:09:06;4.03;;;1.08;;
51030;SDS011;37058;41.442;23.240;2022-07-12T11:11:35;5.60;;;1.08;;
51030;SDS011;37058;41.442;23.240;2022-07-12T11:16:55;3.95;;;1.10;;
51030;SDS011;37058;41.442;23.240;2022-07-12T11:19:25;3.15;;;1.08;;
51030;SDS011;37058;41.442;23.240;2022-07-12T11:21:53;3.20;;;1.17;;
51030;SDS011;37058;41.442;23.240;2022-07-12T11:26:51;3.10;;;1.17;;
51030;SDS011;37058;41.442;23.240;2022-07-12T11:29:20;12.00;;;1.63;;
51030;SDS011;37058;41.442;23.240;2022-07-12T11:31:47;10.48;;;1.40;;
51030;SDS011;37058;41.442;23.240;2022-07-12T11:34:24;6.82;;;1.60;;
51030;SDS011;37058;41.442;23.240;2022-07-12T11:36:52;6.70;;;1.35;;
51030;SDS011;37058;41.442;23.240;2022-07-12T11:42:00;3.05;;;1.13;;
51030;SDS011;37058;41.442;23.240;2022-07-12T11:44:42;2.67;;;0.90;;
51030;SDS011;37058;41.442;23.240;2022-07-12T11:47:09;5.68;;;1.10;;
51030;SDS011;37058;41.442;23.240;2022-07-12T11:49:36;4.32;;;1.00;;
51030;SDS011;37058;41.442;23.240;2022-07-12T11:52:11;3.13;;;0.95;;
51030;SDS011;37058;41.442;23.240;2022-07-12T11:54:45;3.75;;;0.93;;
51030;SDS011;37058;41.442;23.240;2022-07-12T11:57:13;2.60;;;0.98;;
51030;SDS011;37058;41.442;23.240;2022-07-12T11:59:40;2.83;;;0.77;;
51030;SDS011;37058;41.442;23.240;2022-07-12T12:02:07;4.28;;;0.90;;
51030;SDS011;37058;41.442;23.240;2022-07-12T12:04:49;2.00;;;0.90;;
51030;SDS011;37058;41.442;23.240;2022-07-12T12:07:18;2.28;;;0.90;;
51030;SDS011;37058;41.442;23.240;2022-07-12T12:12:35;3.97;;;1.08;;
51030;SDS011;37058;41.442;23.240;2022-07-12T12:15:05;2.72;;;0.82;;
51030;SDS011;37058;41.442;23.240;2022-07-12T12:17:34;1.60;;;0.90;;
51030;SDS011;37058;41.442;23.240;2022-07-12T12:20:12;2.38;;;1.27;;
51030;SDS011;37058;41.442;23.240;2022-07-12T12:22:43;1.90;;;0.80;;
51030;SDS011;37058;41.442;23.240;2022-07-12T12:25:12;1.77;;;0.73;;
51030;SDS011;37058;41.442;23.240;2022-07-12T12:30:22;2.70;;;1.17;;
51030;SDS011;37058;41.442;23.240;2022-07-12T12:32:50;4.25;;;0.77;;
51030;SDS011;37058;41.442;23.240;2022-07-12T12:35:21;3.20;;;0.82;;
51030;SDS011;37058;41.442;23.240;2022-07-12T12:37:59;6.20;;;1.17;;
51030;SDS011;37058;41.442;23.240;2022-07-12T12:40:28;2.78;;;0.77;;
51030;SDS011;37058;41.442;23.240;2022-07-12T12:43:06;7.03;;;1.33;;
51030;SDS011;37058;41.442;23.240;2022-07-12T12:48:21;3.65;;;1.00;;
51030;SDS011;37058;41.442;23.240;2022-07-12T12:50:53;2.17;;;0.85;;
51030;SDS011;37058;41.442;23.240;2022-07-12T12:53:27;2.22;;;0.80;;
51030;SDS011;37058;41.442;23.240;2022-07-12T12:55:54;4.20;;;0.85;;
51030;SDS011;37058;41.442;23.240;2022-07-12T12:58:21;3.70;;;0.95;;
51030;SDS011;37058;41.442;23.240;2022-07-12T13:00:50;3.53;;;1.00;;
51030;SDS011;37058;41.442;23.240;2022-07-12T13:03:19;3.65;;;1.00;;
51030;SDS011;37058;41.442;23.240;2022-07-12T13:05:47;2.15;;;1.05;;
51030;SDS011;37058;41.442;23.240;2022-07-12T13:08:13;7.07;;;1.17;;
51030;SDS011;37058;41.442;23.240;2022-07-12T13:10:41;1.75;;;0.60;;
51030;SDS011;37058;41.442;23.240;2022-07-12T13:13:09;3.20;;;0.97;;
51030;SDS011;37058;41.442;23.240;2022-07-12T13:15:37;7.70;;;1.00;;
51030;SDS011;37058;41.442;23.240;2022-07-12T13:18:04;2.05;;;0.80;;
51030;SDS011;37058;41.442;23.240;2022-07-12T13:20:31;2.35;;;0.77;;
51030;SDS011;37058;41.442;23.240;2022-07-12T13:22:58;3.08;;;1.20;;
51030;SDS011;37058;41.442;23.240;2022-07-12T13:25:25;3.72;;;1.05;;
51030;SDS011;37058;41.442;23.240;2022-07-12T13:27:52;3.55;;;1.10;;
51030;SDS011;37058;41.442;23.240;2022-07-12T13:30:18;6.90;;;1.73;;
51030;SDS011;37058;41.442;23.240;2022-07-12T13:32:46;2.28;;;0.82;;
51030;SDS011;37058;41.442;23.240;2022-07-12T13:35:12;4.25;;;1.02;;
51030;SDS011;37058;41.442;23.240;2022-07-12T13:37:39;2.95;;;0.85;;
51030;SDS011;37058;41.442;23.240;2022-07-12T13:40:08;3.17;;;1.10;;
51030;SDS011;37058;41.442;23.240;2022-07-12T13:42:42;2.80;;;1.05;;
51030;SDS011;37058;41.442;23.240;2022-07-12T13:45:14;2.45;;;0.80;;
51030;SDS011;37058;41.442;23.240;2022-07-12T13:47:44;3.22;;;0.80;;
51030;SDS011;37058;41.442;23.240;2022-07-12T13:50:12;4.25;;;1.10;;
51030;SDS011;37058;41.442;23.240;2022-07-12T13:52:40;4.65;;;0.98;;
51030;SDS011;37058;41.442;23.240;2022-07-12T13:55:10;2.65;;;1.02;;
51030;SDS011;37058;41.442;23.240;2022-07-12T13:57:39;3.63;;;0.90;;
51030;SDS011;37058;41.442;23.240;2022-07-12T14:00:07;4.82;;;1.23;;
51030;SDS011;37058;41.442;23.240;2022-07-12T14:02:44;2.58;;;0.80;;
51030;SDS011;37058;41.442;23.240;2022-07-12T14:05:13;3.25;;;0.80;;
51030;SDS011;37058;41.442;23.240;2022-07-12T14:07:40;3.50;;;1.00;;
51030;SDS011;37058;41.442;23.240;2022-07-12T14:10:08;5.88;;;1.10;;
51030;SDS011;37058;41.442;23.240;2022-07-12T14:12:35;6.32;;;1.20;;
51030;SDS011;37058;41.442;23.240;2022-07-12T14:15:02;2.10;;;0.75;;
51030;SDS011;37058;41.442;23.240;2022-07-12T14:17:38;2.22;;;0.80;;
51030;SDS011;37058;41.442;23.240;2022-07-12T14:20:05;5.93;;;1.60;;
51030;SDS011;37058;41.442;23.240;2022-07-12T14:22:35;6.40;;;1.52;;
51030;SDS011;37058;41.442;23.240;2022-07-12T14:25:02;3.35;;;1.50;;
51030;SDS011;37058;41.442;23.240;2022-07-12T14:27:33;2.60;;;1.35;;
51030;SDS011;37058;41.442;23.240;2022-07-12T14:30:00;3.85;;;1.23;;
51030;SDS011;37058;41.442;23.240;2022-07-12T14:32:27;4.70;;;1.83;;
51030;SDS011;37058;41.442;23.240;2022-07-12T14:34:53;3.00;;;1.20;;
51030;SDS011;37058;41.442;23.240;2022-07-12T14:37:19;6.10;;;1.13;;
51030;SDS011;37058;41.442;23.240;2022-07-12T14:39:45;8.43;;;1.42;;
51030;SDS011;37058;41.442;23.240;2022-07-12T14:42:13;3.55;;;0.90;;
51030;SDS011;37058;41.442;23.240;2022-07-12T14:44:39;5.25;;;0.82;;
51030;SDS011;37058;41.442;23.240;2022-07-12T14:47:05;5.63;;;1.02;;
51030;SDS011;37058;41.442;23.240;2022-07-12T14:49:32;3.63;;;0.80;;
51030;SDS011;37058;41.442;23.240;2022-07-12T14:51:58;1.67;;;0.70;;
51030;SDS011;37058;41.442;23.240;2022-07-12T14:54:24;5.75;;;1.00;;
51030;SDS011;37058;41.442;23.240;2022-07-12T14:56:50;3.03;;;0.75;;
51030;SDS011;37058;41.442;23.240;2022-07-12T14:59:16;4.55;;;0.80;;
51030;SDS011;37058;41.442;23.240;2022-07-12T15:01:42;3.13;;;0.77;;
51030;SDS011;37058;41.442;23.240;2022-07-12T15:04:08;2.60;;;0.75;;
51030;SDS011;37058;41.442;23.240;2022-07-12T15:06:36;3.92;;;1.05;;
51030;SDS011;37058;41.442;23.240;2022-07-12T15:09:03;3.72;;;0.90;;
51030;SDS011;37058;41.442;23.240;2022-07-12T15:11:29;3.40;;;0.70;;
51030;SDS011;37058;41.442;23.240;2022-07-12T15:13:55;7.15;;;0.90;;
51030;SDS011;37058;41.442;23.240;2022-07-12T15:16:21;2.42;;;0.95;;
51030;SDS011;37058;41.442;23.240;2022-07-12T15:18:47;2.47;;;0.75;;
51030;SDS011;37058;41.442;23.240;2022-07-12T15:21:13;4.38;;;0.90;;
51030;SDS011;37058;41.442;23.240;2022-07-12T15:23:40;1.80;;;0.60;;
51030;SDS011;37058;41.442;23.240;2022-07-12T15:26:06;5.28;;;0.90;;